Terminal Aerodrome Forecast
Issued by NWS

Home | Current Version | Previous Version | Text Only | Print | Product List | Glossary On
Versions: 1 2 3 4 5 6 7 8 9 10 11 12
000
FTAK31 PAFA 272323
TAFAOT
TAF
PAOT 272323Z 2800/2824 21006KT P6SM BKN010 OVC015
     FM280300 27010KT 3SM -SHRA SCT015 OVC025
     FM280800 26015KT 2SM -RA OVC009
     FM281600 31014KT P6SM VCSH SCT009 BKN035=

USA.gov is the U.S. government's official web portal to all federal, state and local government web resources and services.